Wittenberg, South Dakota
Current Conditions -  °F | °C
As of 8:35 PM on Wednesday 22 Oct 2014 (Local Time) from KYKN Reporting Station
Broken Clouds Broken Clouds  
Wind Chill: 54°   Ceiling: 12000
Heat Index: 54°   Visibility: 10mi
Dew Point: 52°   Wind: 3mph
Humidity: 94%   Direction: 250°WSW
Pressure: 30.02"   Gusts: NA
Location:  43.2846°N, 97.7352°W
Report Text: KYKN 230135Z AUTO 25003KT 10SM BKN120 12/11 A3002 RMK AO1
Loading
Personal Weather Stations






























Interactive Weather Map
Tropical Storm Tracking
New forecast layout! Learn more

10-Day Weather Forecast

Advertisements
Track Severe Weather on mobile